createdAt,value
2023-12-08T00:00:49.132Z,36.50
2023-12-08T00:01:51.515Z,36.20
2023-12-08T00:02:54.094Z,36.20
2023-12-08T00:03:56.782Z,36.10
2023-12-08T00:04:59.656Z,36.00
2023-12-08T00:06:02.129Z,35.90
2023-12-08T00:07:04.736Z,35.90
2023-12-08T00:08:07.234Z,35.60
2023-12-08T00:09:10.735Z,35.60
2023-12-08T00:10:13.782Z,35.10
2023-12-08T00:11:16.143Z,35.50
2023-12-08T00:12:18.602Z,35.50
2023-12-08T00:13:21.060Z,35.90
2023-12-08T00:14:23.552Z,35.70
2023-12-08T00:15:25.955Z,36.10
2023-12-08T00:16:30.876Z,36.00
2023-12-08T00:17:33.618Z,36.30
2023-12-08T00:18:36.849Z,35.90
2023-12-08T00:19:39.450Z,35.10
2023-12-08T00:20:42.033Z,35.10
2023-12-08T00:21:44.544Z,35.40
2023-12-08T00:22:46.973Z,35.30
2023-12-08T00:23:50.286Z,35.80
2023-12-08T00:24:52.680Z,35.80
2023-12-08T00:25:55.195Z,34.80
2023-12-08T00:26:57.676Z,34.70
2023-12-08T00:28:00.161Z,35.10
2023-12-08T00:29:02.849Z,34.80
2023-12-08T00:30:06.595Z,34.80
2023-12-08T00:31:10.404Z,34.80
2023-12-08T00:32:14.070Z,34.70
2023-12-08T00:33:16.854Z,35.20
2023-12-08T00:34:19.696Z,35.70
2023-12-08T00:35:23.482Z,35.40
2023-12-08T00:36:25.964Z,35.10
2023-12-08T00:37:28.457Z,35.60
2023-12-08T00:38:31.104Z,35.70
2023-12-08T00:39:33.530Z,35.30
2023-12-08T00:40:36.025Z,35.20
2023-12-08T00:41:38.493Z,35.90
2023-12-08T00:42:40.947Z,35.20
2023-12-08T00:43:43.451Z,35.70
2023-12-08T00:44:46.060Z,35.50
2023-12-08T00:45:48.990Z,35.10
2023-12-08T00:46:51.811Z,36.00
2023-12-08T00:47:54.470Z,36.20
2023-12-08T00:48:57.140Z,36.60
2023-12-08T00:50:01.186Z,35.80
2023-12-08T00:51:04.552Z,35.80
2023-12-08T00:52:07.101Z,35.80
2023-12-08T00:53:09.669Z,35.50
2023-12-08T00:54:12.228Z,34.90
2023-12-08T00:55:14.727Z,34.50
2023-12-08T00:56:17.125Z,34.50
2023-12-08T00:57:19.837Z,35.30
2023-12-08T00:58:22.718Z,35.40
2023-12-08T00:59:25.224Z,36.00
2023-12-08T01:00:28.195Z,36.00
2023-12-08T01:01:31.080Z,36.20
2023-12-08T01:02:33.936Z,36.10
2023-12-08T01:03:36.722Z,36.20
2023-12-08T01:04:39.337Z,36.40
2023-12-08T01:05:42.378Z,36.30
2023-12-08T01:06:44.855Z,36.20
2023-12-08T01:07:47.241Z,35.60
2023-12-08T01:08:50.026Z,35.70
2023-12-08T01:09:52.472Z,35.70
2023-12-08T01:10:55.022Z,35.30
2023-12-08T01:11:57.441Z,36.10
2023-12-08T01:12:59.824Z,35.60
2023-12-08T01:14:02.215Z,35.30
2023-12-08T01:15:06.228Z,34.70
2023-12-08T01:16:08.972Z,35.80
2023-12-08T01:17:11.444Z,34.60
2023-12-08T01:18:14.038Z,34.10
2023-12-08T01:19:16.449Z,34.00
2023-12-08T01:20:18.955Z,34.70
2023-12-08T01:21:21.322Z,34.60
2023-12-08T01:22:28.478Z,34.40
2023-12-08T01:23:31.046Z,34.30
2023-12-08T01:24:33.502Z,35.20
2023-12-08T01:25:35.818Z,34.90
2023-12-08T01:26:42.607Z,35.50
2023-12-08T01:27:44.968Z,35.80
2023-12-08T01:28:47.413Z,35.60
2023-12-08T01:29:49.861Z,34.70
2023-12-08T01:30:52.434Z,35.20
2023-12-08T01:31:54.873Z,34.30
2023-12-08T01:32:57.425Z,34.90
2023-12-08T01:33:59.991Z,34.80
2023-12-08T01:35:02.688Z,33.90
2023-12-08T01:36:38.521Z,33.60
2023-12-08T01:37:28.640Z,33.50
2023-12-08T01:38:31.684Z,33.80
2023-12-08T01:39:34.235Z,33.80
2023-12-08T01:40:40.622Z,34.30
2023-12-08T01:41:43.109Z,34.20
2023-12-08T01:42:47.664Z,35.20
2023-12-08T01:43:50.095Z,35.10
2023-12-08T01:44:52.553Z,34.90
2023-12-08T01:45:59.220Z,34.60
2023-12-08T01:47:01.805Z,34.20
2023-12-08T01:48:05.832Z,33.90
2023-12-08T01:49:08.753Z,33.40
2023-12-08T01:50:13.747Z,33.30
2023-12-08T01:51:17.401Z,33.20
2023-12-08T01:52:24.103Z,33.10
2023-12-08T01:53:27.254Z,32.90
2023-12-08T01:54:30.218Z,32.60
2023-12-08T01:55:33.414Z,32.60
2023-12-08T01:56:36.011Z,32.60
2023-12-08T01:57:38.759Z,32.60
2023-12-08T01:58:42.573Z,32.50
2023-12-08T01:59:45.345Z,32.60
2023-12-08T02:00:48.677Z,32.60
2023-12-08T02:01:51.141Z,32.50
2023-12-08T02:02:54.544Z,32.80
2023-12-08T02:03:57.661Z,32.70
2023-12-08T02:05:03.434Z,32.60
2023-12-08T02:06:06.200Z,32.50
2023-12-08T02:07:09.671Z,32.40
2023-12-08T02:08:12.137Z,32.40
2023-12-08T02:09:15.004Z,32.50
2023-12-08T02:10:17.409Z,32.50
2023-12-08T02:11:20.124Z,32.50
2023-12-08T02:12:22.954Z,32.40
2023-12-08T02:13:25.443Z,32.40
2023-12-08T02:14:28.104Z,32.40
2023-12-08T02:15:30.557Z,32.50
2023-12-08T02:16:44.082Z,32.50
2023-12-08T02:17:47.568Z,32.50
2023-12-08T02:18:50.346Z,32.50
2023-12-08T02:19:53.697Z,32.50
2023-12-08T02:21:02.800Z,32.50
2023-12-08T02:22:06.561Z,32.50
2023-12-08T02:23:08.936Z,32.30
2023-12-08T02:24:11.405Z,32.30
2023-12-08T02:25:13.794Z,32.30
2023-12-08T02:26:17.797Z,32.30
2023-12-08T02:27:20.713Z,32.40
2023-12-08T02:28:23.121Z,32.60
2023-12-08T02:29:25.631Z,32.50
2023-12-08T02:30:28.358Z,32.50
2023-12-08T02:31:44.554Z,32.30
2023-12-08T02:33:09.124Z,32.50
2023-12-08T02:34:15.731Z,32.60
2023-12-08T02:35:21.057Z,32.40
2023-12-08T02:36:25.599Z,32.30
2023-12-08T02:37:31.583Z,32.10
2023-12-08T02:38:35.149Z,32.20
2023-12-08T02:39:39.167Z,32.10
2023-12-08T02:40:42.613Z,32.10
2023-12-08T02:41:45.492Z,32.10
2023-12-08T02:42:48.011Z,32.10
2023-12-08T02:43:50.399Z,32.10
2023-12-08T02:44:52.737Z,32.00
2023-12-08T02:45:55.178Z,32.00
2023-12-08T02:46:57.924Z,32.10
2023-12-08T02:48:00.525Z,32.20
2023-12-08T02:49:03.126Z,32.10
2023-12-08T02:50:06.244Z,32.20
2023-12-08T02:51:09.400Z,32.10
2023-12-08T02:52:11.946Z,32.10
2023-12-08T02:53:14.282Z,32.30
2023-12-08T02:54:16.673Z,32.60
2023-12-08T02:55:19.166Z,32.60
2023-12-08T02:56:22.256Z,32.60
2023-12-08T02:57:24.945Z,32.60
2023-12-08T02:58:27.520Z,32.50
2023-12-08T02:59:29.987Z,32.70
2023-12-08T03:00:32.399Z,32.50
2023-12-08T03:01:34.891Z,32.40
2023-12-08T03:02:37.503Z,32.20
2023-12-08T03:03:40.161Z,32.30
2023-12-08T03:04:42.788Z,32.40
2023-12-08T03:05:45.209Z,32.50
2023-12-08T03:06:47.670Z,32.70
2023-12-08T03:07:49.991Z,32.80
2023-12-08T03:08:52.408Z,32.90
2023-12-08T03:09:55.259Z,32.80
2023-12-08T03:10:57.656Z,32.70
2023-12-08T03:12:00.072Z,32.80
2023-12-08T03:13:02.385Z,32.70
2023-12-08T03:14:04.704Z,32.80
2023-12-08T03:15:07.719Z,32.90
2023-12-08T03:16:10.479Z,32.90
2023-12-08T03:17:12.971Z,32.80
2023-12-08T03:18:15.445Z,32.90
2023-12-08T03:19:18.079Z,32.90
2023-12-08T03:20:20.573Z,32.90
2023-12-08T03:21:25.963Z,32.90
2023-12-08T03:22:28.542Z,32.70
2023-12-08T03:23:30.921Z,32.80
2023-12-08T03:24:33.268Z,32.90
2023-12-08T03:25:36.152Z,33.10
2023-12-08T03:26:39.697Z,33.10
2023-12-08T03:27:42.131Z,32.90
2023-12-08T03:28:44.818Z,32.90
2023-12-08T03:29:47.285Z,33.00
2023-12-08T03:30:49.696Z,32.90
2023-12-08T03:31:52.047Z,32.70
2023-12-08T03:32:54.545Z,32.60
2023-12-08T03:33:57.334Z,32.60
2023-12-08T03:35:00.584Z,32.60
2023-12-08T03:36:04.407Z,32.60
2023-12-08T03:37:06.849Z,32.50
2023-12-08T03:38:09.246Z,32.50
2023-12-08T03:39:11.799Z,32.40
2023-12-08T03:40:14.502Z,32.50
2023-12-08T03:41:16.919Z,32.50
2023-12-08T03:42:19.375Z,32.60
2023-12-08T03:43:21.787Z,32.60
2023-12-08T03:44:24.470Z,32.70
2023-12-08T03:45:27.204Z,32.70
2023-12-08T03:46:29.561Z,32.80
2023-12-08T03:47:32.136Z,33.00
2023-12-08T03:48:38.007Z,33.00
2023-12-08T03:49:40.833Z,33.10
2023-12-08T03:50:43.329Z,33.10
2023-12-08T03:51:45.710Z,33.00
2023-12-08T03:52:49.717Z,33.00
2023-12-08T03:53:52.217Z,33.10
2023-12-08T03:54:54.578Z,32.90
2023-12-08T03:55:57.048Z,32.90
2023-12-08T03:56:59.792Z,32.80
2023-12-08T03:58:02.180Z,32.70
2023-12-08T03:59:04.558Z,32.80
2023-12-08T04:00:07.713Z,32.90
2023-12-08T04:01:16.152Z,33.10
2023-12-08T04:02:18.614Z,33.30
2023-12-08T04:03:21.625Z,33.60
2023-12-08T04:04:26.373Z,33.70
2023-12-08T04:05:30.075Z,33.80
2023-12-08T04:06:32.416Z,33.70
2023-12-08T04:07:34.844Z,33.90
2023-12-08T04:08:37.320Z,34.10
2023-12-08T04:09:39.683Z,34.00
2023-12-08T04:10:42.891Z,33.50
2023-12-08T04:11:45.275Z,33.50
2023-12-08T04:12:47.738Z,33.10
2023-12-08T04:13:50.287Z,33.10
2023-12-08T04:14:52.778Z,33.10
2023-12-08T04:15:55.158Z,33.30
2023-12-08T04:16:57.531Z,33.50
2023-12-08T04:18:00.408Z,33.90
2023-12-08T04:19:03.165Z,33.70
2023-12-08T04:20:07.061Z,33.60
2023-12-08T04:21:09.537Z,33.30
2023-12-08T04:22:11.949Z,33.20
2023-12-08T04:23:14.405Z,33.30
2023-12-08T04:24:16.877Z,33.40
2023-12-08T04:25:19.299Z,33.60
2023-12-08T04:26:26.109Z,33.40
2023-12-08T04:27:29.028Z,33.40
2023-12-08T04:28:31.447Z,33.50
2023-12-08T04:29:34.150Z,33.20
2023-12-08T04:30:36.482Z,33.40
2023-12-08T04:31:38.879Z,33.40
2023-12-08T04:32:41.476Z,33.60
2023-12-08T04:33:44.086Z,33.50
2023-12-08T04:34:46.660Z,33.80
2023-12-08T04:35:49.219Z,33.60
2023-12-08T04:36:51.684Z,33.70
2023-12-08T04:37:54.102Z,33.80
2023-12-08T04:38:56.479Z,33.70
2023-12-08T04:39:58.890Z,33.30
2023-12-08T04:41:01.251Z,33.20
2023-12-08T04:42:04.323Z,33.70
2023-12-08T04:43:06.781Z,33.60
2023-12-08T04:44:09.188Z,33.50
2023-12-08T04:45:14.678Z,33.60
2023-12-08T04:46:19.005Z,33.80
2023-12-08T04:47:21.348Z,34.10
2023-12-08T04:49:26.613Z,33.90
2023-12-08T04:50:29.259Z,33.70
2023-12-08T04:51:32.193Z,34.10
2023-12-08T04:52:35.906Z,34.00
2023-12-08T04:53:38.397Z,34.10
2023-12-08T04:54:40.777Z,33.80
2023-12-08T04:55:43.105Z,33.80
2023-12-08T04:56:45.539Z,33.70
2023-12-08T04:57:48.119Z,33.80
2023-12-08T04:58:50.911Z,33.70
2023-12-08T04:59:53.264Z,33.50
2023-12-08T05:00:55.923Z,33.50
2023-12-08T05:01:58.437Z,33.60
2023-12-08T05:03:01.427Z,33.50
2023-12-08T05:04:04.237Z,33.40
2023-12-08T05:05:06.863Z,33.30
2023-12-08T05:06:10.053Z,33.30
2023-12-08T05:07:12.536Z,33.50
2023-12-08T05:08:14.988Z,33.40
2023-12-08T05:09:17.575Z,33.50
2023-12-08T05:10:20.091Z,33.40
2023-12-08T05:11:22.559Z,33.50
2023-12-08T05:12:25.561Z,33.70
2023-12-08T05:13:27.928Z,33.50
2023-12-08T05:14:30.948Z,33.50
2023-12-08T05:15:33.489Z,33.50
2023-12-08T05:16:35.841Z,33.40
2023-12-08T05:17:38.308Z,33.50
2023-12-08T05:18:40.892Z,33.50
2023-12-08T05:19:43.445Z,33.60
2023-12-08T05:20:45.839Z,33.70
2023-12-08T05:22:07.135Z,33.50
2023-12-08T05:23:09.561Z,33.40
2023-12-08T05:24:12.069Z,33.40
2023-12-08T05:25:14.843Z,33.50
2023-12-08T05:26:17.263Z,33.50
2023-12-08T05:27:19.668Z,33.60
2023-12-08T05:28:22.497Z,33.50
2023-12-08T05:29:24.958Z,33.40
2023-12-08T05:30:28.531Z,33.70
2023-12-08T05:31:31.025Z,33.60
2023-12-08T05:32:33.524Z,33.60
2023-12-08T05:33:36.079Z,33.60
2023-12-08T05:34:38.628Z,33.70
2023-12-08T05:35:41.542Z,33.80
2023-12-08T05:36:44.042Z,33.90
2023-12-08T05:37:46.415Z,33.90
2023-12-08T05:38:48.799Z,33.90
2023-12-08T05:39:52.152Z,34.10
2023-12-08T05:40:54.506Z,34.10
2023-12-08T05:41:56.926Z,34.00
2023-12-08T05:42:59.349Z,34.00
2023-12-08T05:44:01.717Z,33.90
2023-12-08T05:45:05.732Z,33.90
2023-12-08T05:46:08.266Z,33.90
2023-12-08T05:47:11.104Z,33.90
2023-12-08T05:48:13.610Z,34.00
2023-12-08T05:49:18.498Z,34.10
2023-12-08T05:50:20.954Z,34.10
2023-12-08T05:51:23.350Z,34.30
2023-12-08T05:52:25.785Z,34.40
2023-12-08T05:53:28.640Z,34.50
2023-12-08T05:54:31.012Z,34.40
2023-12-08T05:55:33.424Z,34.40
2023-12-08T05:56:35.934Z,34.40
2023-12-08T05:57:38.403Z,34.40
2023-12-08T05:58:40.828Z,34.50
2023-12-08T05:59:43.278Z,34.50
2023-12-08T06:00:45.841Z,34.60
2023-12-08T06:01:48.318Z,34.70
2023-12-08T06:02:50.791Z,34.70
2023-12-08T06:03:53.247Z,35.50
2023-12-08T06:04:55.643Z,35.10
2023-12-08T06:05:58.211Z,35.10
2023-12-08T06:07:00.828Z,35.20
2023-12-08T06:08:03.415Z,35.30
2023-12-08T06:09:08.050Z,35.40
2023-12-08T06:10:10.601Z,35.20
2023-12-08T06:11:12.986Z,36.50
2023-12-08T06:12:15.458Z,36.60
2023-12-08T06:13:17.833Z,36.70
2023-12-08T06:14:20.193Z,36.90
2023-12-08T06:15:22.712Z,37.10
2023-12-08T06:16:25.139Z,37.80
2023-12-08T06:17:28.537Z,37.60
2023-12-08T06:18:31.311Z,37.50
2023-12-08T06:19:33.771Z,37.50
2023-12-08T06:20:36.187Z,37.60
2023-12-08T06:21:38.606Z,37.70
2023-12-08T06:22:42.006Z,37.60
2023-12-08T06:23:44.377Z,37.80
2023-12-08T06:24:46.826Z,37.80
2023-12-08T06:25:49.300Z,37.90
2023-12-08T06:26:51.804Z,37.90
2023-12-08T06:27:54.645Z,37.90
2023-12-08T06:28:57.633Z,38.20
2023-12-08T06:30:00.137Z,38.30
2023-12-08T06:31:02.722Z,38.00
2023-12-08T06:32:06.366Z,38.00
2023-12-08T06:33:08.886Z,38.20
2023-12-08T06:34:16.601Z,38.20
2023-12-08T06:35:19.871Z,38.10
2023-12-08T06:36:22.270Z,38.20
2023-12-08T06:37:24.989Z,38.20
2023-12-08T06:38:27.586Z,38.20
2023-12-08T06:39:29.939Z,38.20
2023-12-08T06:40:32.333Z,38.10
2023-12-08T06:41:34.812Z,38.00
2023-12-08T06:42:37.242Z,38.10
2023-12-08T06:43:39.654Z,38.00
2023-12-08T06:44:42.096Z,38.00
2023-12-08T06:45:44.499Z,38.00
2023-12-08T06:46:47.135Z,38.00
2023-12-08T06:47:49.842Z,38.00
2023-12-08T06:48:52.371Z,38.00
2023-12-08T06:49:55.068Z,38.00
2023-12-08T06:50:57.618Z,38.00
2023-12-08T06:52:00.043Z,38.10
2023-12-08T06:53:02.662Z,38.70
2023-12-08T06:54:07.884Z,38.80
2023-12-08T06:55:10.524Z,38.30
2023-12-08T06:56:13.044Z,38.50
2023-12-08T06:57:15.529Z,38.60
2023-12-08T06:58:18.530Z,38.60
2023-12-08T06:59:20.949Z,38.60
2023-12-08T07:00:23.660Z,38.70
2023-12-08T07:01:26.283Z,38.50
2023-12-08T07:02:28.690Z,38.60
2023-12-08T07:03:31.316Z,38.70
2023-12-08T07:04:34.038Z,38.60
2023-12-08T07:05:36.584Z,38.60
2023-12-08T07:06:39.142Z,38.70
2023-12-08T07:07:41.508Z,39.00
2023-12-08T07:08:43.955Z,39.00
2023-12-08T07:09:46.402Z,39.50
2023-12-08T07:10:48.753Z,39.10
2023-12-08T07:11:51.157Z,39.00
2023-12-08T07:12:53.548Z,38.90
2023-12-08T07:13:55.987Z,39.00
2023-12-08T07:14:58.462Z,39.00
2023-12-08T07:16:00.877Z,39.00
2023-12-08T07:17:03.423Z,39.20
2023-12-08T07:18:06.094Z,39.20
2023-12-08T07:19:08.622Z,39.20
2023-12-08T07:20:12.508Z,39.20
2023-12-08T07:21:15.159Z,39.30
2023-12-08T07:22:18.228Z,39.30
2023-12-08T07:23:21.061Z,39.40
2023-12-08T07:24:23.470Z,39.40
2023-12-08T07:25:26.802Z,39.50
2023-12-08T07:26:29.718Z,39.30
2023-12-08T07:27:33.470Z,39.30
2023-12-08T07:28:35.998Z,39.50
2023-12-08T07:29:38.418Z,39.30
2023-12-08T07:30:42.117Z,39.20
2023-12-08T07:31:44.554Z,39.70
2023-12-08T07:32:49.443Z,39.40
2023-12-08T07:33:52.112Z,39.30
2023-12-08T07:34:54.810Z,39.20
2023-12-08T07:35:57.627Z,39.20
2023-12-08T07:37:00.196Z,39.30
2023-12-08T07:38:04.774Z,39.30
2023-12-08T07:39:08.526Z,39.80
2023-12-08T07:40:11.438Z,39.60
2023-12-08T07:41:13.887Z,40.10
2023-12-08T07:42:16.368Z,40.10
2023-12-08T07:43:18.771Z,39.90
2023-12-08T07:44:21.101Z,39.80
2023-12-08T07:45:28.226Z,39.80
2023-12-08T07:46:31.662Z,40.40
2023-12-08T07:47:34.705Z,40.10
2023-12-08T07:48:37.355Z,39.80
2023-12-08T07:49:40.169Z,39.70
2023-12-08T07:50:42.794Z,39.70
2023-12-08T07:51:45.225Z,39.70
2023-12-08T07:52:47.639Z,39.70
2023-12-08T07:53:50.047Z,39.60
2023-12-08T07:54:52.488Z,39.50
2023-12-08T07:55:54.867Z,39.50
2023-12-08T07:56:57.502Z,39.50
2023-12-08T07:57:59.965Z,39.60
2023-12-08T07:59:02.427Z,39.60
2023-12-08T08:00:07.481Z,39.60
2023-12-08T08:01:10.206Z,39.50
2023-12-08T08:02:13.010Z,39.60
2023-12-08T08:03:15.516Z,39.40
2023-12-08T08:04:18.224Z,39.40
2023-12-08T08:05:22.598Z,39.50
2023-12-08T08:06:26.226Z,39.50
2023-12-08T08:07:29.946Z,39.40
2023-12-08T08:08:34.270Z,39.40
2023-12-08T08:09:36.779Z,39.50
2023-12-08T08:10:39.205Z,39.40
2023-12-08T08:11:41.906Z,39.50
2023-12-08T08:12:44.358Z,39.70
2023-12-08T08:13:46.773Z,39.70
2023-12-08T08:14:49.274Z,39.70
2023-12-08T08:15:51.844Z,39.80
2023-12-08T08:16:54.563Z,40.00
2023-12-08T08:17:58.148Z,39.90
2023-12-08T08:19:00.705Z,39.70
2023-12-08T08:20:04.950Z,39.70
2023-12-08T08:21:07.372Z,40.20
2023-12-08T08:22:29.312Z,40.00
2023-12-08T08:23:35.049Z,40.00
2023-12-08T08:24:39.585Z,40.40
2023-12-08T08:25:43.013Z,40.60
2023-12-08T08:26:46.270Z,40.90
2023-12-08T08:27:50.315Z,39.10
2023-12-08T08:28:52.917Z,36.20
2023-12-08T08:29:55.959Z,35.70
2023-12-08T08:30:58.437Z,35.80
2023-12-08T08:32:00.846Z,35.60
2023-12-08T08:33:03.661Z,36.10
2023-12-08T08:34:06.430Z,36.30
2023-12-08T08:35:09.756Z,36.20
2023-12-08T08:36:13.168Z,36.20
2023-12-08T08:37:15.595Z,36.50
2023-12-08T08:38:17.937Z,36.40
2023-12-08T08:39:20.367Z,36.40
2023-12-08T08:40:22.847Z,36.50
2023-12-08T08:41:25.363Z,36.60
2023-12-08T08:42:27.871Z,36.90
2023-12-08T08:43:30.470Z,37.00
2023-12-08T08:44:32.904Z,37.00
2023-12-08T08:45:35.278Z,37.10
2023-12-08T08:46:39.556Z,37.50
2023-12-08T08:47:42.757Z,37.60
2023-12-08T08:48:45.641Z,37.80
2023-12-08T08:49:48.410Z,38.10
2023-12-08T08:50:53.923Z,38.20
2023-12-08T08:51:56.313Z,38.30
2023-12-08T08:53:00.693Z,38.40
2023-12-08T08:54:03.519Z,38.60
2023-12-08T08:55:07.367Z,38.60
2023-12-08T08:56:11.112Z,38.60
2023-12-08T08:57:13.785Z,38.40
2023-12-08T08:58:16.739Z,38.50
2023-12-08T08:59:19.270Z,38.30
2023-12-08T09:00:22.805Z,38.30
2023-12-08T09:01:25.259Z,38.30
2023-12-08T09:02:27.757Z,38.30
2023-12-08T09:03:30.485Z,38.30
2023-12-08T09:04:33.070Z,38.50
2023-12-08T09:05:42.140Z,38.60
2023-12-08T09:06:44.972Z,38.80
2023-12-08T09:07:47.673Z,39.00
2023-12-08T09:08:50.184Z,39.10
2023-12-08T09:09:52.608Z,38.70
2023-12-08T09:10:55.001Z,38.30
2023-12-08T09:11:57.476Z,38.90
2023-12-08T09:12:59.928Z,39.10
2023-12-08T09:14:02.332Z,39.40
2023-12-08T09:15:05.316Z,38.70
2023-12-08T09:16:07.850Z,38.40
2023-12-08T09:17:11.574Z,38.40
2023-12-08T09:18:14.806Z,38.30
2023-12-08T09:19:17.375Z,38.70
2023-12-08T09:20:20.342Z,38.60
2023-12-08T09:21:22.888Z,39.60
2023-12-08T09:22:25.452Z,40.40
2023-12-08T09:23:28.056Z,40.70
2023-12-08T09:24:30.513Z,40.80
2023-12-08T09:25:33.332Z,40.30
2023-12-08T09:26:36.700Z,39.80
2023-12-08T09:27:41.561Z,39.50
2023-12-08T09:28:43.957Z,39.50
2023-12-08T09:29:46.615Z,39.80
2023-12-08T09:30:49.356Z,39.50
2023-12-08T09:31:52.273Z,39.30
2023-12-08T09:32:54.788Z,39.50
2023-12-08T09:33:58.886Z,39.30
2023-12-08T09:35:01.461Z,39.10
2023-12-08T09:36:04.432Z,39.40
2023-12-08T09:37:26.416Z,39.20
2023-12-08T09:38:34.069Z,39.10
2023-12-08T09:39:38.539Z,39.50
2023-12-08T09:40:44.519Z,39.50
2023-12-08T09:41:47.738Z,39.30
2023-12-08T09:43:07.720Z,39.20
2023-12-08T09:44:14.284Z,39.10
2023-12-08T09:45:19.799Z,39.30
2023-12-08T09:46:24.936Z,39.70
2023-12-08T09:47:29.440Z,39.80
2023-12-08T09:48:35.176Z,39.60
2023-12-08T09:49:45.163Z,39.80
2023-12-08T09:50:48.885Z,39.90
2023-12-08T09:51:51.396Z,39.90
2023-12-08T09:52:55.230Z,40.00
2023-12-08T09:53:58.484Z,40.20
2023-12-08T09:55:00.941Z,40.20
2023-12-08T09:56:04.456Z,40.60
2023-12-08T09:57:08.129Z,40.40
2023-12-08T09:58:12.248Z,40.60
2023-12-08T09:59:17.081Z,40.50
2023-12-08T10:00:21.688Z,40.50
2023-12-08T10:01:24.466Z,40.50
2023-12-08T10:02:27.284Z,40.40
2023-12-08T10:03:30.558Z,40.50
2023-12-08T10:04:33.556Z,40.50
2023-12-08T10:05:36.602Z,40.40
2023-12-08T10:06:42.590Z,40.20
2023-12-08T10:07:48.918Z,40.30
2023-12-08T10:08:51.365Z,40.30
2023-12-08T10:09:54.511Z,40.40
2023-12-08T10:10:58.577Z,40.60
2023-12-08T10:12:00.948Z,40.40
2023-12-08T10:13:03.417Z,40.60
2023-12-08T10:14:06.971Z,41.10
2023-12-08T10:15:11.019Z,40.90
2023-12-08T10:16:13.366Z,41.20
2023-12-08T10:17:15.915Z,41.10
2023-12-08T10:18:26.643Z,41.00
2023-12-08T10:19:29.402Z,41.00
2023-12-08T10:20:31.951Z,41.00
2023-12-08T10:21:38.232Z,41.00
2023-12-08T10:22:59.791Z,41.10
2023-12-08T10:24:06.450Z,41.20
2023-12-08T10:25:09.713Z,41.10
2023-12-08T10:26:17.270Z,41.20
2023-12-08T10:27:19.737Z,41.20
2023-12-08T10:28:22.837Z,41.60
2023-12-08T10:29:29.705Z,41.60
2023-12-08T10:30:32.072Z,41.60
2023-12-08T10:31:34.527Z,41.70
2023-12-08T10:32:38.572Z,41.70
2023-12-08T10:33:42.520Z,41.70
2023-12-08T10:34:45.100Z,41.70
2023-12-08T10:35:48.142Z,41.70
2023-12-08T10:36:50.620Z,41.80
2023-12-08T10:37:53.004Z,41.80
2023-12-08T10:38:55.815Z,41.80
2023-12-08T10:39:59.984Z,41.80
2023-12-08T10:41:04.083Z,41.80
2023-12-08T10:42:06.560Z,41.90
2023-12-08T10:43:09.018Z,41.80
2023-12-08T10:44:13.688Z,41.60
2023-12-08T10:45:16.789Z,41.70
2023-12-08T10:46:19.609Z,41.50
2023-12-08T10:47:22.443Z,41.50
2023-12-08T10:48:25.318Z,41.50
2023-12-08T10:49:28.953Z,41.60
2023-12-08T10:50:32.223Z,41.50
2023-12-08T10:51:35.458Z,41.60
2023-12-08T10:52:42.355Z,41.60
2023-12-08T10:53:45.980Z,41.70
2023-12-08T10:54:50.062Z,41.70
2023-12-08T10:56:05.240Z,41.80
2023-12-08T10:57:09.087Z,41.80
2023-12-08T10:58:16.150Z,41.70
2023-12-08T10:59:25.665Z,42.00
2023-12-08T11:00:30.203Z,42.00
2023-12-08T11:01:34.351Z,42.00
2023-12-08T11:02:37.454Z,42.10
2023-12-08T11:03:43.804Z,42.10
2023-12-08T11:04:58.672Z,42.70
2023-12-08T11:06:11.645Z,42.20
2023-12-08T11:07:19.298Z,42.20
2023-12-08T11:08:22.780Z,42.80
2023-12-08T11:09:29.170Z,42.30
2023-12-08T11:10:35.227Z,42.40
2023-12-08T11:11:43.895Z,42.50
2023-12-08T11:13:00.394Z,42.50
2023-12-08T11:14:10.559Z,42.50
2023-12-08T11:15:18.240Z,42.70
2023-12-08T11:16:41.525Z,42.70
2023-12-08T11:18:02.672Z,42.80
2023-12-08T11:19:06.822Z,43.00
2023-12-08T11:20:11.179Z,43.20
2023-12-08T11:21:13.845Z,43.20
2023-12-08T11:22:17.326Z,43.10
2023-12-08T11:23:21.638Z,43.20
2023-12-08T11:24:24.575Z,43.20
2023-12-08T11:25:34.804Z,43.20
2023-12-08T11:26:52.647Z,43.50
2023-12-08T11:28:13.442Z,43.20
2023-12-08T11:29:54.012Z,43.30
2023-12-08T11:31:00.972Z,43.20
2023-12-08T11:32:37.071Z,43.20
2023-12-08T11:34:09.164Z,43.10
2023-12-08T11:35:15.937Z,43.10
2023-12-08T11:36:20.018Z,42.70
2023-12-08T11:37:23.420Z,43.20
2023-12-08T11:38:30.320Z,43.20
2023-12-08T11:39:36.525Z,43.20
2023-12-08T11:40:56.376Z,43.20
2023-12-08T11:41:59.294Z,43.10
2023-12-08T11:43:03.501Z,43.20
2023-12-08T11:44:09.067Z,43.30
2023-12-08T11:45:12.571Z,43.30
2023-12-08T11:46:16.327Z,43.30
2023-12-08T11:47:22.116Z,43.60
2023-12-08T11:48:25.688Z,43.20
2023-12-08T11:49:28.437Z,43.10
2023-12-08T11:50:34.011Z,43.10
2023-12-08T11:51:37.834Z,43.10
2023-12-08T11:52:43.525Z,43.00
2023-12-08T11:53:56.517Z,43.10
2023-12-08T11:55:13.488Z,43.00
2023-12-08T11:56:38.449Z,43.00
2023-12-08T11:58:18.494Z,43.20
2023-12-08T11:59:25.281Z,42.90
2023-12-08T12:00:32.123Z,43.00
2023-12-08T12:01:38.974Z,43.10
2023-12-08T12:02:43.642Z,43.00
2023-12-08T12:03:46.348Z,42.90
2023-12-08T12:04:53.044Z,42.60
2023-12-08T12:05:55.566Z,42.40
2023-12-08T12:06:58.158Z,42.20
2023-12-08T12:08:00.615Z,42.50
2023-12-08T12:09:06.068Z,42.70
2023-12-08T12:10:11.360Z,42.40
2023-12-08T12:11:16.532Z,42.50
2023-12-08T12:12:28.592Z,42.30
2023-12-08T12:13:33.978Z,42.40
2023-12-08T12:14:43.903Z,42.30
2023-12-08T12:15:46.707Z,42.40
2023-12-08T12:16:49.290Z,42.40
2023-12-08T12:17:53.087Z,42.20
2023-12-08T12:18:56.098Z,42.30
2023-12-08T12:19:58.836Z,42.40
2023-12-08T12:21:01.452Z,42.30
2023-12-08T12:22:05.718Z,42.20
2023-12-08T12:23:08.364Z,42.20
2023-12-08T12:24:10.885Z,42.40
2023-12-08T12:25:13.361Z,42.10
2023-12-08T12:26:21.874Z,42.10
2023-12-08T12:27:24.803Z,42.10
2023-12-08T12:28:27.321Z,42.10
2023-12-08T12:29:30.993Z,42.10
2023-12-08T12:30:34.304Z,42.00
2023-12-08T12:31:38.017Z,42.20
2023-12-08T12:32:41.542Z,42.10
2023-12-08T12:33:49.378Z,42.10
2023-12-08T12:34:52.423Z,42.10
2023-12-08T12:35:57.116Z,42.30
2023-12-08T12:37:01.053Z,42.10
2023-12-08T12:38:04.276Z,42.10
2023-12-08T12:39:07.472Z,42.00
2023-12-08T12:40:13.313Z,42.00
2023-12-08T12:41:26.976Z,42.10
2023-12-08T12:42:29.915Z,42.20
2023-12-08T12:43:32.556Z,42.00
2023-12-08T12:44:41.339Z,41.90
2023-12-08T12:45:43.953Z,42.30
2023-12-08T12:46:47.904Z,42.10
2023-12-08T12:47:51.003Z,42.30
2023-12-08T12:48:54.654Z,42.40
2023-12-08T12:50:04.922Z,42.40
2023-12-08T12:51:09.180Z,42.30
2023-12-08T12:52:27.191Z,42.30
2023-12-08T12:53:30.188Z,42.30
2023-12-08T12:54:35.907Z,42.20
2023-12-08T12:55:39.236Z,42.20
2023-12-08T12:56:51.372Z,42.10
2023-12-08T12:57:54.119Z,42.20
2023-12-08T12:59:10.736Z,42.10
2023-12-08T13:00:13.892Z,42.10
2023-12-08T13:01:16.805Z,42.20
2023-12-08T13:02:29.021Z,42.10
2023-12-08T13:03:31.914Z,42.10
2023-12-08T13:04:34.614Z,42.60
2023-12-08T13:05:56.749Z,42.20
2023-12-08T13:06:59.944Z,42.30
2023-12-08T13:08:02.432Z,42.00
2023-12-08T13:09:08.106Z,42.00
2023-12-08T13:10:10.644Z,42.20
2023-12-08T13:11:13.009Z,42.10
2023-12-08T13:12:15.701Z,42.10
2023-12-08T13:13:19.085Z,42.10
2023-12-08T13:14:21.521Z,42.10
2023-12-08T13:15:23.893Z,42.10
2023-12-08T13:16:26.644Z,42.20
2023-12-08T13:17:29.409Z,42.20
2023-12-08T13:18:32.748Z,42.10
2023-12-08T13:19:35.714Z,42.10
2023-12-08T13:20:39.252Z,42.00
2023-12-08T13:21:41.730Z,42.10
2023-12-08T13:22:44.122Z,42.30
2023-12-08T13:23:48.918Z,42.10
2023-12-08T13:24:51.556Z,42.30
2023-12-08T13:25:54.107Z,42.00
2023-12-08T13:26:56.579Z,42.10
2023-12-08T13:27:59.405Z,42.00
2023-12-08T13:29:02.415Z,42.10
2023-12-08T13:30:05.707Z,42.20
2023-12-08T13:31:08.250Z,42.10
2023-12-08T13:32:10.975Z,42.20
2023-12-08T13:33:13.468Z,42.10
2023-12-08T13:34:16.220Z,41.30
2023-12-08T13:35:18.822Z,41.30
2023-12-08T13:36:21.392Z,40.90
2023-12-08T13:37:23.873Z,40.60
2023-12-08T13:38:26.463Z,40.60
2023-12-08T13:39:31.908Z,40.50
2023-12-08T13:40:34.496Z,40.50
2023-12-08T13:41:37.122Z,40.50
2023-12-08T13:42:40.992Z,40.50
2023-12-08T13:43:43.531Z,40.40
2023-12-08T13:44:46.200Z,40.50